sensor_id;sensor_type;location;lat;lon;timestamp;P1;durP1;ratioP1;P2;durP2;ratioP2
49366;SDS011;35245;52.026;8.540;2023-02-16T00:01:21;29.27;;;17.73;;
49366;SDS011;35245;52.026;8.540;2023-02-16T00:03:50;29.70;;;17.60;;
49366;SDS011;35245;52.026;8.540;2023-02-16T00:06:19;40.92;;;17.95;;
49366;SDS011;35245;52.026;8.540;2023-02-16T00:08:47;32.72;;;17.88;;
49366;SDS011;35245;52.026;8.540;2023-02-16T00:11:19;31.67;;;16.88;;
49366;SDS011;35245;52.026;8.540;2023-02-16T00:14:08;28.17;;;16.23;;
49366;SDS011;35245;52.026;8.540;2023-02-16T00:16:37;29.52;;;17.42;;
49366;SDS011;35245;52.026;8.540;2023-02-16T00:19:11;27.75;;;17.10;;
49366;SDS011;35245;52.026;8.540;2023-02-16T00:21:44;29.10;;;17.73;;
49366;SDS011;35245;52.026;8.540;2023-02-16T00:24:11;31.30;;;18.05;;
49366;SDS011;35245;52.026;8.540;2023-02-16T00:26:40;27.20;;;17.08;;
49366;SDS011;35245;52.026;8.540;2023-02-16T00:29:09;31.80;;;17.90;;
49366;SDS011;35245;52.026;8.540;2023-02-16T00:31:43;33.10;;;17.88;;
49366;SDS011;35245;52.026;8.540;2023-02-16T00:34:19;29.80;;;17.08;;
49366;SDS011;35245;52.026;8.540;2023-02-16T00:36:55;34.65;;;18.23;;
49366;SDS011;35245;52.026;8.540;2023-02-16T00:39:24;30.58;;;18.13;;
49366;SDS011;35245;52.026;8.540;2023-02-16T00:41:54;29.67;;;18.10;;
49366;SDS011;35245;52.026;8.540;2023-02-16T00:44:28;28.33;;;17.10;;
49366;SDS011;35245;52.026;8.540;2023-02-16T00:47:00;30.92;;;18.13;;
49366;SDS011;35245;52.026;8.540;2023-02-16T00:49:35;27.65;;;17.52;;
49366;SDS011;35245;52.026;8.540;2023-02-16T00:52:04;30.48;;;18.55;;
49366;SDS011;35245;52.026;8.540;2023-02-16T00:54:50;29.52;;;18.73;;
49366;SDS011;35245;52.026;8.540;2023-02-16T00:57:18;28.75;;;17.98;;
49366;SDS011;35245;52.026;8.540;2023-02-16T00:59:46;30.02;;;18.83;;
49366;SDS011;35245;52.026;8.540;2023-02-16T01:02:24;33.13;;;17.73;;
49366;SDS011;35245;52.026;8.540;2023-02-16T01:04:51;27.98;;;18.23;;
49366;SDS011;35245;52.026;8.540;2023-02-16T01:07:19;28.73;;;18.33;;
49366;SDS011;35245;52.026;8.540;2023-02-16T01:10:04;33.63;;;19.95;;
49366;SDS011;35245;52.026;8.540;2023-02-16T01:12:51;31.17;;;18.02;;
49366;SDS011;35245;52.026;8.540;2023-02-16T01:15:19;33.40;;;18.83;;
49366;SDS011;35245;52.026;8.540;2023-02-16T01:17:49;28.52;;;18.13;;
49366;SDS011;35245;52.026;8.540;2023-02-16T01:20:18;30.02;;;18.80;;
49366;SDS011;35245;52.026;8.540;2023-02-16T01:22:48;31.00;;;19.17;;
49366;SDS011;35245;52.026;8.540;2023-02-16T01:25:15;32.08;;;18.88;;
49366;SDS011;35245;52.026;8.540;2023-02-16T01:27:43;32.50;;;18.80;;
49366;SDS011;35245;52.026;8.540;2023-02-16T01:30:13;29.77;;;19.90;;
49366;SDS011;35245;52.026;8.540;2023-02-16T01:32:44;35.63;;;19.95;;
49366;SDS011;35245;52.026;8.540;2023-02-16T01:35:15;32.67;;;19.33;;
49366;SDS011;35245;52.026;8.540;2023-02-16T01:37:43;32.08;;;19.10;;
49366;SDS011;35245;52.026;8.540;2023-02-16T01:40:12;34.42;;;18.98;;
49366;SDS011;35245;52.026;8.540;2023-02-16T01:42:52;34.83;;;19.77;;
49366;SDS011;35245;52.026;8.540;2023-02-16T01:45:29;29.35;;;18.70;;
49366;SDS011;35245;52.026;8.540;2023-02-16T01:48:02;31.23;;;19.98;;
49366;SDS011;35245;52.026;8.540;2023-02-16T01:50:35;32.67;;;20.05;;
49366;SDS011;35245;52.026;8.540;2023-02-16T01:53:14;35.45;;;20.13;;
49366;SDS011;35245;52.026;8.540;2023-02-16T01:55:47;40.30;;;20.40;;
49366;SDS011;35245;52.026;8.540;2023-02-16T01:58:30;35.83;;;19.35;;
49366;SDS011;35245;52.026;8.540;2023-02-16T02:04:25;32.95;;;19.92;;
49366;SDS011;35245;52.026;8.540;2023-02-16T02:07:17;36.42;;;19.83;;
49366;SDS011;35245;52.026;8.540;2023-02-16T02:09:56;33.47;;;19.15;;
49366;SDS011;35245;52.026;8.540;2023-02-16T02:12:33;35.53;;;21.58;;
49366;SDS011;35245;52.026;8.540;2023-02-16T02:15:10;40.47;;;21.10;;
49366;SDS011;35245;52.026;8.540;2023-02-16T02:17:40;34.60;;;20.40;;
49366;SDS011;35245;52.026;8.540;2023-02-16T02:20:09;33.70;;;20.20;;
49366;SDS011;35245;52.026;8.540;2023-02-16T02:29:35;34.58;;;20.27;;
49366;SDS011;35245;52.026;8.540;2023-02-16T02:32:21;39.20;;;21.42;;
49366;SDS011;35245;52.026;8.540;2023-02-16T02:35:05;34.05;;;20.38;;
49366;SDS011;35245;52.026;8.540;2023-02-16T02:37:46;35.20;;;21.20;;
49366;SDS011;35245;52.026;8.540;2023-02-16T02:40:23;34.17;;;20.75;;
49366;SDS011;35245;52.026;8.540;2023-02-16T02:43:05;39.03;;;21.35;;
49366;SDS011;35245;52.026;8.540;2023-02-16T02:45:42;32.63;;;20.90;;
49366;SDS011;35245;52.026;8.540;2023-02-16T02:48:13;35.55;;;21.00;;
49366;SDS011;35245;52.026;8.540;2023-02-16T02:50:42;35.13;;;19.92;;
49366;SDS011;35245;52.026;8.540;2023-02-16T02:53:32;36.70;;;21.60;;
49366;SDS011;35245;52.026;8.540;2023-02-16T02:56:02;36.20;;;21.60;;
49366;SDS011;35245;52.026;8.540;2023-02-16T02:59:01;37.08;;;21.60;;
49366;SDS011;35245;52.026;8.540;2023-02-16T03:01:52;37.03;;;21.63;;
49366;SDS011;35245;52.026;8.540;2023-02-16T03:04:25;33.47;;;20.67;;
49366;SDS011;35245;52.026;8.540;2023-02-16T03:06:56;38.47;;;21.73;;
49366;SDS011;35245;52.026;8.540;2023-02-16T03:09:26;38.95;;;22.75;;
49366;SDS011;35245;52.026;8.540;2023-02-16T03:11:53;37.88;;;21.67;;
49366;SDS011;35245;52.026;8.540;2023-02-16T03:14:41;38.10;;;20.98;;
49366;SDS011;35245;52.026;8.540;2023-02-16T03:17:14;38.63;;;21.85;;
49366;SDS011;35245;52.026;8.540;2023-02-16T03:20:03;37.15;;;20.30;;
49366;SDS011;35245;52.026;8.540;2023-02-16T03:22:51;38.70;;;21.58;;
49366;SDS011;35245;52.026;8.540;2023-02-16T03:25:38;38.28;;;21.27;;
49366;SDS011;35245;52.026;8.540;2023-02-16T03:28:25;32.30;;;20.65;;
49366;SDS011;35245;52.026;8.540;2023-02-16T03:31:14;38.55;;;22.15;;
49366;SDS011;35245;52.026;8.540;2023-02-16T03:33:45;40.45;;;22.55;;
49366;SDS011;35245;52.026;8.540;2023-02-16T03:36:18;37.90;;;22.58;;
49366;SDS011;35245;52.026;8.540;2023-02-16T03:38:46;38.13;;;22.63;;
49366;SDS011;35245;52.026;8.540;2023-02-16T03:41:13;36.42;;;22.83;;
49366;SDS011;35245;52.026;8.540;2023-02-16T03:43:40;37.05;;;22.38;;
49366;SDS011;35245;52.026;8.540;2023-02-16T03:46:08;37.15;;;22.27;;
49366;SDS011;35245;52.026;8.540;2023-02-16T03:48:36;38.75;;;23.48;;
49366;SDS011;35245;52.026;8.540;2023-02-16T03:51:04;36.92;;;22.63;;
49366;SDS011;35245;52.026;8.540;2023-02-16T03:53:31;35.88;;;21.77;;
49366;SDS011;35245;52.026;8.540;2023-02-16T03:55:58;36.80;;;22.08;;
49366;SDS011;35245;52.026;8.540;2023-02-16T03:58:25;40.53;;;24.40;;
49366;SDS011;35245;52.026;8.540;2023-02-16T04:00:52;37.10;;;23.02;;
49366;SDS011;35245;52.026;8.540;2023-02-16T04:03:20;38.88;;;21.88;;
49366;SDS011;35245;52.026;8.540;2023-02-16T04:05:48;40.85;;;22.85;;
49366;SDS011;35245;52.026;8.540;2023-02-16T04:08:15;38.40;;;22.23;;
49366;SDS011;35245;52.026;8.540;2023-02-16T04:10:42;35.13;;;22.50;;
49366;SDS011;35245;52.026;8.540;2023-02-16T04:13:10;35.80;;;23.02;;
49366;SDS011;35245;52.026;8.540;2023-02-16T04:15:36;33.75;;;22.13;;
49366;SDS011;35245;52.026;8.540;2023-02-16T04:18:03;42.17;;;25.13;;
49366;SDS011;35245;52.026;8.540;2023-02-16T04:20:31;37.00;;;22.80;;
49366;SDS011;35245;52.026;8.540;2023-02-16T04:23:01;40.28;;;23.45;;
49366;SDS011;35245;52.026;8.540;2023-02-16T04:25:28;37.30;;;22.80;;
49366;SDS011;35245;52.026;8.540;2023-02-16T04:27:56;40.17;;;24.08;;
49366;SDS011;35245;52.026;8.540;2023-02-16T04:30:23;39.97;;;23.98;;
49366;SDS011;35245;52.026;8.540;2023-02-16T04:32:53;38.17;;;23.17;;
49366;SDS011;35245;52.026;8.540;2023-02-16T04:35:22;41.38;;;23.05;;
49366;SDS011;35245;52.026;8.540;2023-02-16T04:37:50;39.63;;;23.23;;
49366;SDS011;35245;52.026;8.540;2023-02-16T04:40:18;38.30;;;23.17;;
49366;SDS011;35245;52.026;8.540;2023-02-16T04:42:46;34.97;;;22.85;;
49366;SDS011;35245;52.026;8.540;2023-02-16T04:45:13;39.17;;;23.95;;
49366;SDS011;35245;52.026;8.540;2023-02-16T04:47:40;37.25;;;23.50;;
49366;SDS011;35245;52.026;8.540;2023-02-16T04:50:08;37.53;;;22.98;;
49366;SDS011;35245;52.026;8.540;2023-02-16T04:52:36;37.95;;;23.98;;
49366;SDS011;35245;52.026;8.540;2023-02-16T04:55:04;36.92;;;22.63;;
49366;SDS011;35245;52.026;8.540;2023-02-16T04:57:36;38.67;;;24.05;;
49366;SDS011;35245;52.026;8.540;2023-02-16T05:00:03;37.83;;;22.95;;
49366;SDS011;35245;52.026;8.540;2023-02-16T05:02:33;36.22;;;22.08;;
49366;SDS011;35245;52.026;8.540;2023-02-16T05:05:00;41.75;;;23.90;;
49366;SDS011;35245;52.026;8.540;2023-02-16T05:07:27;37.50;;;22.08;;
49366;SDS011;35245;52.026;8.540;2023-02-16T05:09:54;35.25;;;21.15;;
49366;SDS011;35245;52.026;8.540;2023-02-16T05:12:21;40.25;;;23.85;;
49366;SDS011;35245;52.026;8.540;2023-02-16T05:15:07;36.70;;;22.75;;
49366;SDS011;35245;52.026;8.540;2023-02-16T05:17:34;38.53;;;22.60;;
49366;SDS011;35245;52.026;8.540;2023-02-16T05:20:02;36.17;;;23.15;;
49366;SDS011;35245;52.026;8.540;2023-02-16T05:22:30;37.20;;;21.83;;
49366;SDS011;35245;52.026;8.540;2023-02-16T05:24:58;36.60;;;22.85;;
49366;SDS011;35245;52.026;8.540;2023-02-16T05:27:27;38.15;;;23.33;;
49366;SDS011;35245;52.026;8.540;2023-02-16T05:29:56;43.13;;;24.70;;
49366;SDS011;35245;52.026;8.540;2023-02-16T05:32:25;43.25;;;23.45;;
49366;SDS011;35245;52.026;8.540;2023-02-16T05:34:52;36.92;;;22.65;;
49366;SDS011;35245;52.026;8.540;2023-02-16T05:37:19;38.40;;;24.13;;
49366;SDS011;35245;52.026;8.540;2023-02-16T05:39:46;38.72;;;22.73;;
49366;SDS011;35245;52.026;8.540;2023-02-16T05:42:13;39.40;;;23.27;;
49366;SDS011;35245;52.026;8.540;2023-02-16T05:44:41;34.83;;;22.30;;
49366;SDS011;35245;52.026;8.540;2023-02-16T05:47:08;39.50;;;23.00;;
49366;SDS011;35245;52.026;8.540;2023-02-16T05:49:37;38.75;;;22.08;;
49366;SDS011;35245;52.026;8.540;2023-02-16T05:52:04;39.83;;;23.50;;
49366;SDS011;35245;52.026;8.540;2023-02-16T05:54:31;38.78;;;23.15;;
49366;SDS011;35245;52.026;8.540;2023-02-16T05:56:59;39.75;;;23.75;;
49366;SDS011;35245;52.026;8.540;2023-02-16T05:59:26;41.35;;;22.48;;
49366;SDS011;35245;52.026;8.540;2023-02-16T06:01:54;45.83;;;24.45;;
49366;SDS011;35245;52.026;8.540;2023-02-16T06:04:21;37.53;;;22.58;;
49366;SDS011;35245;52.026;8.540;2023-02-16T06:06:50;36.55;;;22.73;;
49366;SDS011;35245;52.026;8.540;2023-02-16T06:09:17;37.60;;;23.05;;
49366;SDS011;35245;52.026;8.540;2023-02-16T06:11:44;41.25;;;23.73;;
49366;SDS011;35245;52.026;8.540;2023-02-16T06:14:13;45.53;;;23.75;;
49366;SDS011;35245;52.026;8.540;2023-02-16T06:16:42;36.53;;;22.40;;
49366;SDS011;35245;52.026;8.540;2023-02-16T06:19:12;40.47;;;22.08;;
49366;SDS011;35245;52.026;8.540;2023-02-16T06:21:41;35.63;;;22.15;;
49366;SDS011;35245;52.026;8.540;2023-02-16T06:24:10;37.78;;;23.00;;
49366;SDS011;35245;52.026;8.540;2023-02-16T06:26:39;38.22;;;22.95;;
49366;SDS011;35245;52.026;8.540;2023-02-16T06:29:06;38.90;;;23.08;;
49366;SDS011;35245;52.026;8.540;2023-02-16T06:31:34;43.33;;;23.02;;
49366;SDS011;35245;52.026;8.540;2023-02-16T06:34:01;41.97;;;24.60;;
49366;SDS011;35245;52.026;8.540;2023-02-16T06:36:29;34.85;;;21.15;;
49366;SDS011;35245;52.026;8.540;2023-02-16T06:38:57;35.72;;;21.75;;
49366;SDS011;35245;52.026;8.540;2023-02-16T06:41:25;37.60;;;23.00;;
49366;SDS011;35245;52.026;8.540;2023-02-16T06:44:03;39.33;;;22.40;;
49366;SDS011;35245;52.026;8.540;2023-02-16T06:46:33;42.85;;;22.98;;
49366;SDS011;35245;52.026;8.540;2023-02-16T06:49:01;38.17;;;21.38;;
49366;SDS011;35245;52.026;8.540;2023-02-16T06:51:28;36.67;;;21.33;;
49366;SDS011;35245;52.026;8.540;2023-02-16T06:53:56;36.40;;;21.80;;
49366;SDS011;35245;52.026;8.540;2023-02-16T06:56:23;35.53;;;22.67;;
49366;SDS011;35245;52.026;8.540;2023-02-16T06:58:52;33.00;;;20.77;;
49366;SDS011;35245;52.026;8.540;2023-02-16T07:01:19;36.47;;;22.17;;
49366;SDS011;35245;52.026;8.540;2023-02-16T07:03:49;34.95;;;21.40;;
49366;SDS011;35245;52.026;8.540;2023-02-16T07:06:18;37.03;;;22.55;;
49366;SDS011;35245;52.026;8.540;2023-02-16T07:08:46;36.35;;;21.75;;
49366;SDS011;35245;52.026;8.540;2023-02-16T07:11:14;38.75;;;22.23;;
49366;SDS011;35245;52.026;8.540;2023-02-16T07:13:44;34.42;;;22.30;;
49366;SDS011;35245;52.026;8.540;2023-02-16T07:16:12;38.75;;;22.27;;
49366;SDS011;35245;52.026;8.540;2023-02-16T07:18:40;39.45;;;21.45;;
49366;SDS011;35245;52.026;8.540;2023-02-16T07:21:07;38.53;;;21.98;;
49366;SDS011;35245;52.026;8.540;2023-02-16T07:23:34;35.08;;;21.38;;
49366;SDS011;35245;52.026;8.540;2023-02-16T07:26:02;34.08;;;21.48;;
49366;SDS011;35245;52.026;8.540;2023-02-16T07:28:30;37.72;;;21.98;;
49366;SDS011;35245;52.026;8.540;2023-02-16T07:30:59;35.53;;;21.88;;
49366;SDS011;35245;52.026;8.540;2023-02-16T07:33:33;39.75;;;21.88;;
49366;SDS011;35245;52.026;8.540;2023-02-16T07:36:00;38.30;;;21.77;;
49366;SDS011;35245;52.026;8.540;2023-02-16T07:38:27;37.05;;;21.35;;
49366;SDS011;35245;52.026;8.540;2023-02-16T07:40:54;35.88;;;21.42;;
49366;SDS011;35245;52.026;8.540;2023-02-16T07:43:22;36.53;;;20.83;;
49366;SDS011;35245;52.026;8.540;2023-02-16T07:45:50;35.97;;;20.30;;
49366;SDS011;35245;52.026;8.540;2023-02-16T07:48:19;34.72;;;19.85;;
49366;SDS011;35245;52.026;8.540;2023-02-16T07:50:46;35.33;;;19.65;;
49366;SDS011;35245;52.026;8.540;2023-02-16T07:53:13;38.22;;;20.02;;
49366;SDS011;35245;52.026;8.540;2023-02-16T07:55:40;35.22;;;20.33;;
49366;SDS011;35245;52.026;8.540;2023-02-16T07:58:09;33.10;;;19.58;;
49366;SDS011;35245;52.026;8.540;2023-02-16T08:00:51;44.92;;;20.20;;
49366;SDS011;35245;52.026;8.540;2023-02-16T08:03:21;32.40;;;19.20;;
49366;SDS011;35245;52.026;8.540;2023-02-16T08:05:48;45.95;;;20.52;;
49366;SDS011;35245;52.026;8.540;2023-02-16T08:08:15;34.05;;;19.77;;
49366;SDS011;35245;52.026;8.540;2023-02-16T08:10:42;35.75;;;19.27;;
49366;SDS011;35245;52.026;8.540;2023-02-16T08:13:09;60.78;;;20.83;;
49366;SDS011;35245;52.026;8.540;2023-02-16T08:15:37;33.45;;;19.15;;
49366;SDS011;35245;52.026;8.540;2023-02-16T08:18:07;35.60;;;20.83;;
49366;SDS011;35245;52.026;8.540;2023-02-16T08:20:36;35.42;;;20.00;;
49366;SDS011;35245;52.026;8.540;2023-02-16T08:23:03;29.98;;;18.17;;
49366;SDS011;35245;52.026;8.540;2023-02-16T08:25:32;30.17;;;19.58;;
49366;SDS011;35245;52.026;8.540;2023-02-16T08:27:59;39.03;;;19.00;;
49366;SDS011;35245;52.026;8.540;2023-02-16T08:30:26;43.78;;;21.30;;
49366;SDS011;35245;52.026;8.540;2023-02-16T08:32:54;32.60;;;18.55;;
49366;SDS011;35245;52.026;8.540;2023-02-16T08:35:25;34.17;;;19.77;;
49366;SDS011;35245;52.026;8.540;2023-02-16T08:37:54;42.10;;;20.17;;
49366;SDS011;35245;52.026;8.540;2023-02-16T08:40:21;31.73;;;19.65;;
49366;SDS011;35245;52.026;8.540;2023-02-16T08:42:49;31.48;;;19.60;;
49366;SDS011;35245;52.026;8.540;2023-02-16T08:45:17;29.48;;;19.33;;
49366;SDS011;35245;52.026;8.540;2023-02-16T08:47:45;34.22;;;19.20;;
49366;SDS011;35245;52.026;8.540;2023-02-16T08:50:14;34.13;;;19.13;;
49366;SDS011;35245;52.026;8.540;2023-02-16T08:52:41;36.45;;;20.55;;
49366;SDS011;35245;52.026;8.540;2023-02-16T08:55:11;35.88;;;19.25;;
49366;SDS011;35245;52.026;8.540;2023-02-16T08:57:38;34.42;;;20.38;;
49366;SDS011;35245;52.026;8.540;2023-02-16T09:00:05;36.22;;;19.80;;
49366;SDS011;35245;52.026;8.540;2023-02-16T09:02:51;34.05;;;19.98;;
49366;SDS011;35245;52.026;8.540;2023-02-16T09:05:19;33.22;;;19.13;;
49366;SDS011;35245;52.026;8.540;2023-02-16T09:07:46;37.17;;;20.20;;
49366;SDS011;35245;52.026;8.540;2023-02-16T09:10:15;30.95;;;19.73;;
49366;SDS011;35245;52.026;8.540;2023-02-16T09:12:43;32.72;;;19.15;;
49366;SDS011;35245;52.026;8.540;2023-02-16T09:15:14;34.20;;;20.05;;
49366;SDS011;35245;52.026;8.540;2023-02-16T09:17:41;34.15;;;19.83;;
49366;SDS011;35245;52.026;8.540;2023-02-16T09:20:10;33.00;;;18.85;;
49366;SDS011;35245;52.026;8.540;2023-02-16T09:22:38;35.50;;;19.30;;
49366;SDS011;35245;52.026;8.540;2023-02-16T09:25:06;41.45;;;20.67;;
49366;SDS011;35245;52.026;8.540;2023-02-16T09:27:36;30.10;;;20.00;;
49366;SDS011;35245;52.026;8.540;2023-02-16T09:30:04;31.48;;;19.00;;
49366;SDS011;35245;52.026;8.540;2023-02-16T09:32:33;35.83;;;20.75;;
49366;SDS011;35245;52.026;8.540;2023-02-16T09:35:01;33.17;;;20.00;;
49366;SDS011;35245;52.026;8.540;2023-02-16T09:37:29;33.75;;;20.58;;
49366;SDS011;35245;52.026;8.540;2023-02-16T09:39:57;32.83;;;19.83;;
49366;SDS011;35245;52.026;8.540;2023-02-16T09:42:26;34.17;;;20.65;;
49366;SDS011;35245;52.026;8.540;2023-02-16T09:45:06;33.47;;;19.88;;
49366;SDS011;35245;52.026;8.540;2023-02-16T09:47:38;40.88;;;20.55;;
49366;SDS011;35245;52.026;8.540;2023-02-16T09:50:12;33.78;;;19.35;;
49366;SDS011;35245;52.026;8.540;2023-02-16T09:52:43;35.50;;;20.83;;
49366;SDS011;35245;52.026;8.540;2023-02-16T09:55:18;33.35;;;19.40;;
49366;SDS011;35245;52.026;8.540;2023-02-16T09:57:50;33.13;;;20.02;;
49366;SDS011;35245;52.026;8.540;2023-02-16T10:00:39;31.83;;;19.92;;
49366;SDS011;35245;52.026;8.540;2023-02-16T10:06:25;30.50;;;19.88;;
49366;SDS011;35245;52.026;8.540;2023-02-16T10:09:13;35.72;;;19.80;;
49366;SDS011;35245;52.026;8.540;2023-02-16T10:11:44;31.52;;;20.73;;
49366;SDS011;35245;52.026;8.540;2023-02-16T10:14:23;32.25;;;19.42;;
49366;SDS011;35245;52.026;8.540;2023-02-16T10:17:00;35.67;;;20.55;;
49366;SDS011;35245;52.026;8.540;2023-02-16T10:19:40;28.85;;;19.42;;
49366;SDS011;35245;52.026;8.540;2023-02-16T10:22:15;34.97;;;20.17;;
49366;SDS011;35245;52.026;8.540;2023-02-16T10:24:53;34.63;;;20.70;;
49366;SDS011;35245;52.026;8.540;2023-02-16T10:27:26;38.28;;;20.73;;
49366;SDS011;35245;52.026;8.540;2023-02-16T10:30:07;39.10;;;24.42;;
49366;SDS011;35245;52.026;8.540;2023-02-16T10:32:46;30.42;;;18.80;;
49366;SDS011;35245;52.026;8.540;2023-02-16T10:35:22;32.22;;;20.80;;
49366;SDS011;35245;52.026;8.540;2023-02-16T10:38:03;54.22;;;20.52;;
49366;SDS011;35245;52.026;8.540;2023-02-16T10:40:39;40.55;;;20.60;;
49366;SDS011;35245;52.026;8.540;2023-02-16T10:43:17;41.90;;;20.77;;
49366;SDS011;35245;52.026;8.540;2023-02-16T10:45:50;32.03;;;19.45;;
49366;SDS011;35245;52.026;8.540;2023-02-16T10:48:21;43.95;;;21.60;;
49366;SDS011;35245;52.026;8.540;2023-02-16T10:50:51;36.67;;;21.70;;
49366;SDS011;35245;52.026;8.540;2023-02-16T10:53:26;35.08;;;20.23;;
49366;SDS011;35245;52.026;8.540;2023-02-16T10:56:11;31.73;;;19.88;;
49366;SDS011;35245;52.026;8.540;2023-02-16T10:59:03;38.03;;;20.30;;
49366;SDS011;35245;52.026;8.540;2023-02-16T11:01:34;33.17;;;20.85;;
49366;SDS011;35245;52.026;8.540;2023-02-16T11:04:05;35.85;;;19.75;;
49366;SDS011;35245;52.026;8.540;2023-02-16T11:06:34;34.83;;;21.55;;
49366;SDS011;35245;52.026;8.540;2023-02-16T11:09:01;32.95;;;20.20;;
49366;SDS011;35245;52.026;8.540;2023-02-16T11:11:34;36.08;;;20.33;;
49366;SDS011;35245;52.026;8.540;2023-02-16T11:14:04;33.20;;;20.70;;
49366;SDS011;35245;52.026;8.540;2023-02-16T11:16:43;32.60;;;21.27;;
49366;SDS011;35245;52.026;8.540;2023-02-16T11:19:16;31.77;;;20.13;;
49366;SDS011;35245;52.026;8.540;2023-02-16T11:21:48;35.50;;;20.75;;
49366;SDS011;35245;52.026;8.540;2023-02-16T11:24:23;32.95;;;19.80;;
49366;SDS011;35245;52.026;8.540;2023-02-16T11:27:03;35.08;;;20.67;;
49366;SDS011;35245;52.026;8.540;2023-02-16T11:29:39;34.55;;;19.98;;
49366;SDS011;35245;52.026;8.540;2023-02-16T11:32:07;39.85;;;19.95;;
49366;SDS011;35245;52.026;8.540;2023-02-16T11:34:38;33.38;;;21.60;;
49366;SDS011;35245;52.026;8.540;2023-02-16T11:37:12;38.22;;;20.55;;
49366;SDS011;35245;52.026;8.540;2023-02-16T11:39:46;31.48;;;19.52;;
49366;SDS011;35245;52.026;8.540;2023-02-16T11:42:18;30.17;;;20.15;;
49366;SDS011;35245;52.026;8.540;2023-02-16T11:44:54;31.27;;;19.90;;
49366;SDS011;35245;52.026;8.540;2023-02-16T11:47:25;31.52;;;19.48;;
49366;SDS011;35245;52.026;8.540;2023-02-16T11:50:12;32.22;;;20.02;;
49366;SDS011;35245;52.026;8.540;2023-02-16T11:52:47;30.02;;;19.52;;
49366;SDS011;35245;52.026;8.540;2023-02-16T11:55:20;30.20;;;19.58;;
49366;SDS011;35245;52.026;8.540;2023-02-16T11:57:51;33.78;;;21.50;;
49366;SDS011;35245;52.026;8.540;2023-02-16T12:00:21;30.25;;;19.58;;
49366;SDS011;35245;52.026;8.540;2023-02-16T12:05:51;36.03;;;20.45;;
49366;SDS011;35245;52.026;8.540;2023-02-16T12:08:46;30.80;;;20.17;;
49366;SDS011;35245;52.026;8.540;2023-02-16T12:11:41;34.60;;;20.75;;
49366;SDS011;35245;52.026;8.540;2023-02-16T12:14:30;33.28;;;19.17;;
49366;SDS011;35245;52.026;8.540;2023-02-16T12:17:26;34.53;;;21.85;;
49366;SDS011;35245;52.026;8.540;2023-02-16T12:20:15;36.97;;;21.60;;
49366;SDS011;35245;52.026;8.540;2023-02-16T12:23:01;31.23;;;19.90;;
49366;SDS011;35245;52.026;8.540;2023-02-16T12:25:43;33.90;;;20.50;;
49366;SDS011;35245;52.026;8.540;2023-02-16T12:28:22;39.17;;;20.95;;
49366;SDS011;35245;52.026;8.540;2023-02-16T12:31:04;31.55;;;19.38;;
49366;SDS011;35245;52.026;8.540;2023-02-16T12:33:43;32.83;;;18.92;;
49366;SDS011;35245;52.026;8.540;2023-02-16T12:39:20;30.30;;;18.50;;
49366;SDS011;35245;52.026;8.540;2023-02-16T12:41:59;28.92;;;18.95;;
49366;SDS011;35245;52.026;8.540;2023-02-16T12:44:45;29.80;;;18.40;;
49366;SDS011;35245;52.026;8.540;2023-02-16T12:49:48;32.20;;;18.55;;
49366;SDS011;35245;52.026;8.540;2023-02-16T12:52:23;37.30;;;19.10;;
49366;SDS011;35245;52.026;8.540;2023-02-16T12:55:14;31.92;;;19.67;;
49366;SDS011;35245;52.026;8.540;2023-02-16T12:57:48;29.40;;;18.95;;
49366;SDS011;35245;52.026;8.540;2023-02-16T13:00:29;31.17;;;19.70;;
49366;SDS011;35245;52.026;8.540;2023-02-16T13:03:09;49.50;;;20.10;;
49366;SDS011;35245;52.026;8.540;2023-02-16T13:06:00;28.75;;;19.05;;
49366;SDS011;35245;52.026;8.540;2023-02-16T13:11:13;32.97;;;20.17;;
49366;SDS011;35245;52.026;8.540;2023-02-16T13:13:46;35.17;;;20.23;;
49366;SDS011;35245;52.026;8.540;2023-02-16T13:16:18;27.42;;;19.55;;
49366;SDS011;35245;52.026;8.540;2023-02-16T13:18:51;32.33;;;20.33;;
49366;SDS011;35245;52.026;8.540;2023-02-16T13:21:28;29.08;;;19.80;;
49366;SDS011;35245;52.026;8.540;2023-02-16T13:24:26;30.70;;;20.13;;
49366;SDS011;35245;52.026;8.540;2023-02-16T13:27:20;34.58;;;19.90;;
49366;SDS011;35245;52.026;8.540;2023-02-16T13:30:06;27.40;;;18.08;;
49366;SDS011;35245;52.026;8.540;2023-02-16T13:33:18;28.45;;;18.92;;
49366;SDS011;35245;52.026;8.540;2023-02-16T13:36:08;33.03;;;19.15;;
49366;SDS011;35245;52.026;8.540;2023-02-16T13:42:30;30.17;;;21.10;;
49366;SDS011;35245;52.026;8.540;2023-02-16T13:45:23;28.25;;;20.23;;
49366;SDS011;35245;52.026;8.540;2023-02-16T13:47:53;30.67;;;19.83;;
49366;SDS011;35245;52.026;8.540;2023-02-16T13:50:25;28.30;;;18.88;;
49366;SDS011;35245;52.026;8.540;2023-02-16T13:52:55;28.60;;;19.40;;
49366;SDS011;35245;52.026;8.540;2023-02-16T13:55:35;27.00;;;18.90;;
49366;SDS011;35245;52.026;8.540;2023-02-16T13:58:07;38.47;;;22.50;;
49366;SDS011;35245;52.026;8.540;2023-02-16T14:00:54;28.13;;;18.75;;
49366;SDS011;35245;52.026;8.540;2023-02-16T14:03:36;29.27;;;18.40;;
49366;SDS011;35245;52.026;8.540;2023-02-16T14:11:59;29.35;;;17.90;;
49366;SDS011;35245;52.026;8.540;2023-02-16T14:17:24;27.08;;;18.55;;
49366;SDS011;35245;52.026;8.540;2023-02-16T14:19:56;28.88;;;18.55;;
49366;SDS011;35245;52.026;8.540;2023-02-16T14:22:31;27.25;;;18.80;;
49366;SDS011;35245;52.026;8.540;2023-02-16T14:25:05;28.10;;;19.40;;
49366;SDS011;35245;52.026;8.540;2023-02-16T14:28:01;28.48;;;20.27;;
49366;SDS011;35245;52.026;8.540;2023-02-16T14:30:33;27.55;;;19.35;;
49366;SDS011;35245;52.026;8.540;2023-02-16T14:33:15;34.13;;;18.98;;
49366;SDS011;35245;52.026;8.540;2023-02-16T14:36:02;33.22;;;18.40;;
49366;SDS011;35245;52.026;8.540;2023-02-16T14:38:40;30.63;;;19.63;;
49366;SDS011;35245;52.026;8.540;2023-02-16T14:41:12;31.63;;;20.15;;
49366;SDS011;35245;52.026;8.540;2023-02-16T14:43:52;32.38;;;21.13;;
49366;SDS011;35245;52.026;8.540;2023-02-16T14:46:42;29.63;;;20.10;;
49366;SDS011;35245;52.026;8.540;2023-02-16T14:49:38;33.15;;;21.10;;
49366;SDS011;35245;52.026;8.540;2023-02-16T14:52:30;39.70;;;23.25;;
49366;SDS011;35245;52.026;8.540;2023-02-16T14:58:50;35.80;;;20.17;;
49366;SDS011;35245;52.026;8.540;2023-02-16T15:01:23;35.22;;;21.85;;
49366;SDS011;35245;52.026;8.540;2023-02-16T15:03:53;31.58;;;20.75;;
49366;SDS011;35245;52.026;8.540;2023-02-16T15:06:25;32.58;;;22.27;;
49366;SDS011;35245;52.026;8.540;2023-02-16T15:08:58;31.08;;;22.10;;
49366;SDS011;35245;52.026;8.540;2023-02-16T15:11:29;30.48;;;21.42;;
49366;SDS011;35245;52.026;8.540;2023-02-16T15:14:03;37.00;;;22.27;;
49366;SDS011;35245;52.026;8.540;2023-02-16T15:16:36;31.15;;;21.90;;
49366;SDS011;35245;52.026;8.540;2023-02-16T15:19:09;33.53;;;23.38;;
49366;SDS011;35245;52.026;8.540;2023-02-16T15:21:43;33.08;;;21.88;;
49366;SDS011;35245;52.026;8.540;2023-02-16T15:24:19;34.83;;;21.88;;
49366;SDS011;35245;52.026;8.540;2023-02-16T15:26:52;35.97;;;23.30;;
49366;SDS011;35245;52.026;8.540;2023-02-16T15:29:26;34.28;;;22.65;;
49366;SDS011;35245;52.026;8.540;2023-02-16T15:31:54;38.92;;;23.23;;
49366;SDS011;35245;52.026;8.540;2023-02-16T15:34:26;35.95;;;23.13;;
49366;SDS011;35245;52.026;8.540;2023-02-16T15:36:59;32.70;;;23.02;;